Time;durP1;ratioP1;P1;durP2;ratioP2;P2;SDS_P1;SDS_P2;PMS_P1;PMS_P2;Temp;Humidity;BMP_temperature;BMP_pressure;BME280_temperature;BME280_humidity;BME280_pressure;Samples;Min_cycle;Max_cycle;Signal;HPM_P1;HPM_P2
2023/09/04 00:00:55;;;;;;;13.75;8.52;;;16.30;99.90;;;;;;5105385;28;20084;-66
2023/09/04 00:03:21;;;;;;;14.35;8.65;;;16.20;99.90;;;;;;5102799;28;20039;-67
2023/09/04 00:05:48;;;;;;;16.38;8.65;;;16.10;99.90;;;;;;5110277;28;20030;-66
2023/09/04 00:08:14;;;;;;;15.15;9.70;;;16.10;99.90;;;;;;5104373;28;20498;-67
2023/09/04 00:10:40;;;;;;;12.88;8.57;;;16.00;99.90;;;;;;5103550;28;20039;-66
2023/09/04 00:13:05;;;;;;;15.02;8.38;;;16.00;99.90;;;;;;5106065;28;20016;-65
2023/09/04 00:15:31;;;;;;;13.13;8.88;;;16.00;99.90;;;;;;5104841;28;20027;-66
2023/09/04 00:17:56;;;;;;;15.68;9.77;;;15.90;99.90;;;;;;5105422;28;20034;-67
2023/09/04 00:20:24;;;;;;;14.95;9.40;;;15.90;99.90;;;;;;5106039;28;20031;-67
2023/09/04 00:22:50;;;;;;;14.63;9.32;;;15.80;99.90;;;;;;5106215;28;20022;-67
2023/09/04 00:25:16;;;;;;;17.90;8.98;;;15.80;99.90;;;;;;5105068;28;20032;-67
2023/09/04 00:27:42;;;;;;;15.57;8.98;;;15.80;99.90;;;;;;5104470;28;20375;-67
2023/09/04 00:30:08;;;;;;;16.33;9.02;;;15.70;99.90;;;;;;5105900;28;20032;-66
2023/09/04 00:32:33;;;;;;;15.07;8.70;;;15.70;99.90;;;;;;5106724;28;20080;-67
2023/09/04 00:34:59;;;;;;;15.77;8.60;;;15.60;99.90;;;;;;5103829;28;20020;-67
2023/09/04 00:37:24;;;;;;;19.00;11.02;;;15.60;99.90;;;;;;5107966;28;20077;-67
2023/09/04 00:39:50;;;;;;;18.63;11.05;;;15.50;99.90;;;;;;5104155;28;20471;-65
2023/09/04 00:42:15;;;;;;;20.98;11.90;;;15.50;99.90;;;;;;5105459;28;20081;-66
2023/09/04 00:44:47;;;;;;;21.02;12.70;;;15.50;99.90;;;;;;5104780;28;20036;-65
2023/09/04 00:47:14;;;;;;;20.02;11.68;;;15.50;99.90;;;;;;5103810;28;20024;-65
2023/09/04 00:49:41;;;;;;;19.95;11.18;;;15.40;99.90;;;;;;5103505;28;20103;-66
2023/09/04 00:52:07;;;;;;;18.90;11.63;;;15.40;99.90;;;;;;5105095;28;20028;-66
2023/09/04 00:54:33;;;;;;;20.48;12.48;;;15.40;99.90;;;;;;5103882;28;20020;-67
2023/09/04 00:57:02;;;;;;;21.70;12.15;;;15.40;99.90;;;;;;5104845;28;20460;-66
2023/09/04 00:59:28;;;;;;;18.88;11.88;;;15.40;99.90;;;;;;5105372;28;20092;-66
2023/09/04 01:01:57;;;;;;;21.13;11.93;;;15.40;99.90;;;;;;5103334;28;20016;-66
2023/09/04 01:04:22;;;;;;;22.40;11.75;;;15.40;99.90;;;;;;5103876;28;20028;-66
2023/09/04 01:06:48;;;;;;;16.83;10.40;;;15.40;99.90;;;;;;5107428;28;20081;-66
2023/09/04 01:09:14;;;;;;;16.92;10.18;;;15.40;99.90;;;;;;5103201;28;20111;-66
2023/09/04 01:11:46;;;;;;;23.92;12.18;;;15.40;99.90;;;;;;5104564;28;20076;-66
2023/09/04 01:14:17;;;;;;;19.00;10.93;;;15.40;99.90;;;;;;5105484;28;20539;-65
2023/09/04 01:16:44;;;;;;;16.67;10.38;;;15.40;99.90;;;;;;5102637;28;20040;-66
2023/09/04 01:19:10;;;;;;;18.77;10.23;;;15.40;99.90;;;;;;5103519;28;20020;-66
2023/09/04 01:21:39;;;;;;;19.25;10.40;;;15.40;99.90;;;;;;5105713;28;20468;-67
2023/09/04 01:24:08;;;;;;;14.82;9.57;;;15.40;99.90;;;;;;5104481;28;20491;-66
2023/09/04 01:26:40;;;;;;;16.70;10.05;;;15.40;99.90;;;;;;5105105;28;20478;-66
2023/09/04 01:29:21;;;;;;;15.85;9.82;;;15.40;99.90;;;;;;5103383;28;20137;-66
2023/09/04 01:31:53;;;;;;;17.35;10.05;;;15.40;99.90;;;;;;5102385;28;20039;-66
2023/09/04 01:34:24;;;;;;;17.67;10.73;;;15.40;99.90;;;;;;5104531;28;20078;-65
2023/09/04 01:36:52;;;;;;;19.15;11.23;;;15.40;99.90;;;;;;5099711;28;20039;-66
2023/09/04 01:39:20;;;;;;;15.05;9.90;;;15.40;99.90;;;;;;5103116;28;20043;-66
2023/09/04 01:41:45;;;;;;;19.52;10.63;;;15.40;99.90;;;;;;5107295;28;20024;-66
2023/09/04 01:44:11;;;;;;;18.02;9.88;;;15.30;99.90;;;;;;5104499;28;20042;-66
2023/09/04 01:46:37;;;;;;;17.13;10.77;;;15.30;99.90;;;;;;5103901;28;20028;-66
2023/09/04 01:49:02;;;;;;;16.90;9.70;;;15.30;99.90;;;;;;5103284;28;20026;-65
2023/09/04 01:51:28;;;;;;;18.70;10.68;;;15.20;99.90;;;;;;5104320;28;20024;-66
2023/09/04 01:53:53;;;;;;;17.88;10.38;;;15.30;99.90;;;;;;5102574;28;20020;-66
2023/09/04 01:56:19;;;;;;;18.00;9.82;;;15.30;99.90;;;;;;5103350;28;20020;-67
2023/09/04 01:58:44;;;;;;;19.05;9.98;;;15.20;99.90;;;;;;5103917;28;20084;-66
2023/09/04 02:01:10;;;;;;;18.58;9.38;;;15.20;99.90;;;;;;5104512;28;20011;-66
2023/09/04 02:03:36;;;;;;;19.08;8.98;;;15.10;99.90;;;;;;5102428;28;20035;-66
2023/09/04 02:06:01;;;;;;;19.45;11.07;;;15.10;99.90;;;;;;5102801;28;20028;-65
2023/09/04 02:08:27;;;;;;;19.45;11.65;;;15.00;99.90;;;;;;5104346;28;20044;-65
2023/09/04 02:10:54;;;;;;;20.52;11.13;;;15.00;99.90;;;;;;5102532;28;20115;-67
2023/09/04 02:13:20;;;;;;;17.98;10.18;;;14.90;99.90;;;;;;5103185;28;20064;-65
2023/09/04 02:15:46;;;;;;;18.70;11.50;;;14.90;99.90;;;;;;5104615;28;20028;-66
2023/09/04 02:18:11;;;;;;;20.30;12.15;;;14.80;99.90;;;;;;5101898;28;20028;-65
2023/09/04 02:20:37;;;;;;;19.45;12.50;;;14.80;99.90;;;;;;5102319;28;20020;-66
2023/09/04 02:23:02;;;;;;;20.27;11.18;;;14.80;99.90;;;;;;5104840;28;20035;-67
2023/09/04 02:25:28;;;;;;;18.10;10.85;;;14.80;99.90;;;;;;5104425;28;20043;-66
2023/09/04 02:27:54;;;;;;;16.08;10.20;;;14.80;99.90;;;;;;5102152;28;20024;-65
2023/09/04 02:30:19;;;;;;;19.08;10.77;;;14.80;99.90;;;;;;5101957;28;20030;-65
2023/09/04 02:32:45;;;;;;;16.67;10.30;;;14.70;99.90;;;;;;5104033;28;20391;-66
2023/09/04 02:35:11;;;;;;;17.63;10.32;;;14.60;99.90;;;;;;5102812;28;20419;-66
2023/09/04 02:37:36;;;;;;;18.60;10.73;;;14.60;99.90;;;;;;5101447;28;20055;-66
2023/09/04 02:40:05;;;;;;;19.08;10.95;;;14.50;99.90;;;;;;5102928;28;20028;-66
2023/09/04 02:42:31;;;;;;;16.02;10.18;;;14.50;99.90;;;;;;5099496;28;20028;-65
2023/09/04 02:44:56;;;;;;;14.20;9.63;;;14.40;99.90;;;;;;5101663;28;20039;-66
2023/09/04 02:47:22;;;;;;;17.48;9.68;;;14.40;99.90;;;;;;5105275;28;20020;-66
2023/09/04 02:49:48;;;;;;;17.48;10.52;;;14.30;99.90;;;;;;5107624;28;20027;-66
2023/09/04 02:52:14;;;;;;;20.42;11.60;;;14.30;99.90;;;;;;5103352;28;20064;-65
2023/09/04 02:54:40;;;;;;;22.20;13.38;;;14.30;99.90;;;;;;5102704;28;20032;-64
2023/09/04 02:57:06;;;;;;;20.00;12.65;;;14.30;99.90;;;;;;5102200;28;20094;-66
2023/09/04 02:59:34;;;;;;;21.17;12.07;;;14.30;99.90;;;;;;5103731;28;20532;-65
2023/09/04 03:01:59;;;;;;;18.95;13.00;;;14.30;99.90;;;;;;5102337;28;20031;-66
2023/09/04 03:04:25;;;;;;;23.13;13.48;;;14.20;99.90;;;;;;5101282;28;20035;-65
2023/09/04 03:06:50;;;;;;;21.88;12.63;;;14.20;99.90;;;;;;5103410;28;20043;-64
2023/09/04 03:09:16;;;;;;;20.83;13.35;;;14.20;99.90;;;;;;5103413;28;20043;-65
2023/09/04 03:11:41;;;;;;;20.08;12.88;;;14.10;99.90;;;;;;5102854;28;20019;-66
2023/09/04 03:14:07;;;;;;;18.90;11.95;;;14.10;99.90;;;;;;5106813;28;20028;-65
2023/09/04 03:16:33;;;;;;;21.33;12.90;;;14.10;99.90;;;;;;5097971;28;20028;-65
2023/09/04 03:18:58;;;;;;;22.15;13.25;;;14.10;99.90;;;;;;5099131;28;20114;-66
2023/09/04 03:21:24;;;;;;;20.45;13.63;;;14.10;99.90;;;;;;5105892;28;20030;-66
2023/09/04 03:23:51;;;;;;;20.60;12.88;;;14.10;99.90;;;;;;5112697;28;20016;-66
2023/09/04 03:26:17;;;;;;;21.90;13.55;;;14.10;99.90;;;;;;5113797;28;20110;-66
2023/09/04 03:28:42;;;;;;;19.02;12.73;;;14.10;99.90;;;;;;5113411;28;20016;-66
2023/09/04 03:31:13;;;;;;;21.02;12.23;;;14.10;99.90;;;;;;5112008;28;20097;-65
2023/09/04 03:33:39;;;;;;;19.10;12.05;;;14.10;99.90;;;;;;5112811;28;20072;-65
2023/09/04 03:36:05;;;;;;;18.20;11.57;;;14.10;99.90;;;;;;5094002;28;20028;-65
2023/09/04 03:38:30;;;;;;;19.15;12.63;;;14.00;99.90;;;;;;5105762;28;20027;-66
2023/09/04 03:40:56;;;;;;;19.13;12.15;;;14.00;99.90;;;;;;5106878;28;20055;-66
2023/09/04 03:43:21;;;;;;;19.83;12.73;;;14.00;99.90;;;;;;5101535;28;20468;-65
2023/09/04 03:45:47;;;;;;;18.60;12.75;;;14.10;99.90;;;;;;5102340;28;20051;-64
2023/09/04 03:48:12;;;;;;;18.45;12.20;;;14.10;99.90;;;;;;5102852;28;20031;-65
2023/09/04 03:50:39;;;;;;;18.80;12.55;;;14.10;99.90;;;;;;5104801;28;20028;-65
2023/09/04 03:53:04;;;;;;;18.52;11.95;;;14.10;99.90;;;;;;5100461;28;20020;-65
2023/09/04 03:55:30;;;;;;;18.40;11.32;;;14.10;99.90;;;;;;5105010;28;20027;-66
2023/09/04 03:57:56;;;;;;;16.38;10.77;;;14.20;99.90;;;;;;5106301;28;20408;-65
2023/09/04 04:00:22;;;;;;;18.08;11.05;;;14.20;99.90;;;;;;5105312;28;20073;-67
2023/09/04 04:02:49;;;;;;;17.65;11.85;;;14.20;99.90;;;;;;5105422;28;20467;-67
2023/09/04 04:05:15;;;;;;;21.15;12.00;;;14.20;99.90;;;;;;5105259;28;20022;-65
2023/09/04 04:07:42;;;;;;;17.02;11.80;;;14.30;99.90;;;;;;5106408;28;20448;-66
2023/09/04 04:10:08;;;;;;;19.05;11.80;;;14.30;99.90;;;;;;5104074;28;20055;-66
2023/09/04 04:12:34;;;;;;;17.17;12.23;;;14.30;99.90;;;;;;5106629;28;20111;-65
2023/09/04 04:15:04;;;;;;;17.38;11.25;;;14.30;99.90;;;;;;5104327;28;20106;-66
2023/09/04 04:17:30;;;;;;;19.40;11.80;;;14.30;99.90;;;;;;5105648;28;20130;-65
2023/09/04 04:19:57;;;;;;;18.67;12.25;;;14.30;99.90;;;;;;5106589;28;20795;-66
2023/09/04 04:22:23;;;;;;;18.73;12.23;;;14.30;99.90;;;;;;5104837;28;20030;-66
2023/09/04 04:24:52;;;;;;;17.40;12.15;;;14.40;99.90;;;;;;5105355;28;20425;-65
2023/09/04 04:27:17;;;;;;;19.25;11.23;;;14.40;99.90;;;;;;5103488;28;20107;-65
2023/09/04 04:29:55;;;;;;;16.75;11.48;;;14.40;99.90;;;;;;5106123;28;20110;-66
2023/09/04 04:32:20;;;;;;;18.15;12.05;;;14.40;99.90;;;;;;5108967;28;20054;-66
2023/09/04 04:34:46;;;;;;;17.83;11.80;;;14.40;99.90;;;;;;5105780;28;20055;-65
2023/09/04 04:37:12;;;;;;;16.52;10.85;;;14.40;99.90;;;;;;5105050;28;20028;-66
2023/09/04 04:39:37;;;;;;;18.77;11.73;;;14.30;99.90;;;;;;5106271;28;20031;-66
2023/09/04 04:42:04;;;;;;;17.38;10.52;;;14.30;99.90;;;;;;5103691;28;20028;-65
2023/09/04 04:44:30;;;;;;;18.48;10.82;;;14.20;99.90;;;;;;5105482;28;20027;-66
2023/09/04 04:46:56;;;;;;;21.52;13.23;;;14.20;99.90;;;;;;5105712;28;20391;-66
2023/09/04 04:49:22;;;;;;;22.63;14.48;;;14.20;99.90;;;;;;5100961;28;20510;-66
2023/09/04 04:51:51;;;;;;;19.73;12.98;;;14.20;99.90;;;;;;5103815;28;20031;-66
2023/09/04 04:54:19;;;;;;;21.58;13.40;;;14.20;99.90;;;;;;5104350;28;20036;-65
2023/09/04 04:56:49;;;;;;;19.48;12.43;;;14.10;99.90;;;;;;5105720;28;20093;-65
2023/09/04 04:59:16;;;;;;;18.05;11.50;;;14.10;99.90;;;;;;5103198;28;20024;-65
2023/09/04 05:01:45;;;;;;;21.58;12.35;;;14.10;99.90;;;;;;5105118;28;20020;-65
2023/09/04 05:04:11;;;;;;;20.98;11.80;;;14.00;99.90;;;;;;5105541;28;20031;-67
2023/09/04 05:06:36;;;;;;;18.50;11.05;;;14.00;99.90;;;;;;5103449;28;20363;-65
2023/09/04 05:09:03;;;;;;;17.80;11.90;;;14.00;99.90;;;;;;5105178;28;20043;-66
2023/09/04 05:11:29;;;;;;;21.38;14.52;;;14.00;99.90;;;;;;5104881;28;20035;-66
2023/09/04 05:13:54;;;;;;;23.23;15.93;;;14.00;99.90;;;;;;5103216;28;20028;-66
2023/09/04 05:16:20;;;;;;;19.55;13.15;;;14.00;99.90;;;;;;5104956;28;20091;-65
2023/09/04 05:18:46;;;;;;;20.00;11.48;;;14.00;99.90;;;;;;5104253;28;20467;-65
2023/09/04 05:21:11;;;;;;;23.13;13.02;;;14.00;99.90;;;;;;5103724;28;20051;-65
2023/09/04 05:23:37;;;;;;;20.10;11.98;;;14.00;99.90;;;;;;5114950;28;20062;-65
2023/09/04 05:26:03;;;;;;;17.48;11.32;;;14.00;99.90;;;;;;5115139;28;20082;-65
2023/09/04 05:28:28;;;;;;;22.70;12.57;;;14.10;99.90;;;;;;5114904;28;20072;-66
2023/09/04 05:30:54;;;;;;;17.45;11.85;;;14.10;99.90;;;;;;5114433;28;20032;-65
2023/09/04 05:33:20;;;;;;;17.75;10.57;;;14.10;99.90;;;;;;5113018;28;20016;-66
2023/09/04 05:35:55;;;;;;;17.05;11.23;;;14.10;99.90;;;;;;5113645;28;20084;-65
2023/09/04 05:38:21;;;;;;;20.20;10.77;;;14.20;99.90;;;;;;5112097;28;20027;-67
2023/09/04 05:40:49;;;;;;;21.95;12.90;;;14.20;99.90;;;;;;5113750;28;20107;-65
2023/09/04 05:43:14;;;;;;;20.13;13.50;;;14.20;99.90;;;;;;5105474;28;20122;-65
2023/09/04 05:45:40;;;;;;;22.30;14.32;;;14.30;99.90;;;;;;5094319;28;20110;-66
2023/09/04 05:48:06;;;;;;;22.15;14.38;;;14.40;99.90;;;;;;5094487;28;20107;-65
2023/09/04 05:50:32;;;;;;;18.33;12.18;;;14.50;99.90;;;;;;5094099;28;20020;-66
2023/09/04 05:52:57;;;;;;;21.85;13.48;;;14.60;99.90;;;;;;5093721;28;20028;-66
2023/09/04 05:55:23;;;;;;;21.02;12.20;;;14.70;99.90;;;;;;5093933;28;20510;-66
2023/09/04 05:57:48;;;;;;;18.52;12.15;;;14.80;99.90;;;;;;5114131;28;20028;-66
2023/09/04 06:00:14;;;;;;;21.40;13.65;;;14.90;99.90;;;;;;5114284;28;20107;-65
2023/09/04 06:02:40;;;;;;;18.42;12.60;;;15.10;99.90;;;;;;5114171;28;20149;-66
2023/09/04 06:05:05;;;;;;;18.27;11.00;;;15.20;99.90;;;;;;5114233;28;20065;-65
2023/09/04 06:07:32;;;;;;;17.52;11.07;;;15.30;99.90;;;;;;5113503;28;20068;-65
2023/09/04 06:09:57;;;;;;;18.85;11.38;;;15.40;99.90;;;;;;5113212;28;20541;-66
2023/09/04 06:12:23;;;;;;;18.42;11.50;;;15.50;99.90;;;;;;5112263;28;20101;-66
2023/09/04 06:14:48;;;;;;;19.48;11.80;;;15.70;99.90;;;;;;5114177;28;20391;-65
2023/09/04 06:17:14;;;;;;;19.02;11.55;;;15.80;99.90;;;;;;5113901;28;20020;-66
2023/09/04 06:19:39;;;;;;;17.25;11.40;;;15.90;99.90;;;;;;5113993;28;20050;-66
2023/09/04 06:22:05;;;;;;;20.30;11.68;;;16.10;99.90;;;;;;5114076;28;20464;-65
2023/09/04 06:24:32;;;;;;;18.40;11.60;;;16.20;99.90;;;;;;5113799;28;20027;-65
2023/09/04 06:26:57;;;;;;;16.33;10.82;;;16.30;99.90;;;;;;5113885;28;20019;-66
2023/09/04 06:29:23;;;;;;;17.42;11.80;;;16.50;99.90;;;;;;5112076;28;20528;-66
2023/09/04 06:31:49;;;;;;;20.00;11.57;;;16.70;99.90;;;;;;5113913;28;20038;-66
2023/09/04 06:34:14;;;;;;;17.35;11.35;;;16.80;99.90;;;;;;5113774;28;20378;-66
2023/09/04 06:36:40;;;;;;;16.92;10.27;;;16.90;99.90;;;;;;5114116;28;20028;-65
2023/09/04 06:39:06;;;;;;;15.23;9.73;;;17.10;99.90;;;;;;5113783;28;20031;-66
2023/09/04 06:41:32;;;;;;;16.13;9.90;;;17.30;99.90;;;;;;5113649;28;20460;-65
2023/09/04 06:43:58;;;;;;;17.08;10.38;;;17.50;99.90;;;;;;5113842;28;20502;-65
2023/09/04 06:46:24;;;;;;;15.43;9.98;;;17.60;99.90;;;;;;5113532;28;20031;-65
2023/09/04 06:48:49;;;;;;;15.73;9.98;;;17.80;99.90;;;;;;5113608;28;20061;-65
2023/09/04 06:51:16;;;;;;;15.45;9.20;;;17.90;99.90;;;;;;5112458;28;20112;-65
2023/09/04 06:53:42;;;;;;;16.25;9.43;;;18.00;99.90;;;;;;5109168;28;20051;-65
2023/09/04 06:56:08;;;;;;;14.35;9.40;;;18.20;99.90;;;;;;5113771;28;20098;-66
2023/09/04 06:58:33;;;;;;;13.63;8.82;;;18.30;99.90;;;;;;5113782;28;20031;-66
2023/09/04 07:01:03;;;;;;;15.85;9.57;;;18.50;99.90;;;;;;5107181;28;20484;-65
2023/09/04 07:03:29;;;;;;;14.40;8.93;;;18.60;99.90;;;;;;5108291;28;20027;-65
2023/09/04 07:05:55;;;;;;;15.35;9.07;;;18.80;99.90;;;;;;5112523;28;20024;-66
2023/09/04 07:08:20;;;;;;;15.88;9.50;;;19.00;99.90;;;;;;5113368;28;20048;-65
2023/09/04 07:10:47;;;;;;;15.00;8.48;;;19.00;99.90;;;;;;5113339;28;20615;-66
2023/09/04 07:13:13;;;;;;;15.90;9.40;;;19.20;99.90;;;;;;5113595;28;20027;-65
2023/09/04 07:15:40;;;;;;;13.95;8.48;;;19.30;99.90;;;;;;5113577;28;20031;-65
2023/09/04 07:18:06;;;;;;;14.18;8.93;;;19.50;99.90;;;;;;5106944;28;20051;-65
2023/09/04 07:20:32;;;;;;;12.98;7.53;;;19.70;99.90;;;;;;5112062;28;20055;-65
2023/09/04 07:22:58;;;;;;;12.40;7.35;;;19.90;99.90;;;;;;5100137;28;20062;-65
2023/09/04 07:25:23;;;;;;;12.35;7.70;;;20.20;99.90;;;;;;5113347;28;20024;-65
2023/09/04 07:27:49;;;;;;;10.15;6.80;;;20.50;99.90;;;;;;5114005;28;20028;-66
2023/09/04 07:30:15;;;;;;;10.93;6.30;;;20.80;99.90;;;;;;5116896;28;20405;-66
2023/09/04 07:32:40;;;;;;;9.93;6.10;;;21.20;99.90;;;;;;5117450;28;20459;-66
2023/09/04 07:35:06;;;;;;;9.43;5.80;;;21.60;99.90;;;;;;5114674;28;20032;-67
2023/09/04 07:37:32;;;;;;;13.13;6.32;;;22.00;99.90;;;;;;5116149;28;20027;-65
2023/09/04 07:39:57;;;;;;;12.65;6.68;;;22.60;99.90;;;;;;5110098;28;20031;-64
2023/09/04 07:42:24;;;;;;;10.93;5.90;;;23.20;99.90;;;;;;5103687;28;20025;-65
2023/09/04 07:44:50;;;;;;;10.48;5.68;;;24.00;99.90;;;;;;5106087;28;20028;-66
2023/09/04 07:47:16;;;;;;;9.50;4.97;;;24.90;99.90;;;;;;5107086;27;20474;-65
2023/09/04 07:49:41;;;;;;;9.90;5.03;;;25.70;99.90;;;;;;5102379;28;20107;-65
2023/09/04 07:52:07;;;;;;;10.25;5.50;;;26.50;99.00;;;;;;5103956;28;20058;-65
2023/09/04 07:54:32;;;;;;;7.63;4.60;;;27.40;98.00;;;;;;5108503;28;20047;-67
2023/09/04 07:57:04;;;;;;;8.68;4.82;;;28.20;97.20;;;;;;5115854;28;20024;-65
2023/09/04 07:59:30;;;;;;;8.73;4.65;;;28.90;95.90;;;;;;5114891;28;20031;-65
2023/09/04 08:01:55;;;;;;;8.25;4.00;;;29.50;94.70;;;;;;5115287;28;20472;-65
2023/09/04 08:04:21;;;;;;;8.45;4.07;;;30.00;94.10;;;;;;5115672;28;20386;-66
2023/09/04 08:06:47;;;;;;;7.93;4.22;;;30.60;93.10;;;;;;5115719;28;20027;-65
2023/09/04 08:09:14;;;;;;;10.05;3.90;;;30.90;92.70;;;;;;5116361;28;20071;-66
2023/09/04 08:11:39;;;;;;;10.25;4.45;;;31.40;92.00;;;;;;5115826;28;20027;-65
2023/09/04 08:14:05;;;;;;;6.47;4.22;;;31.80;91.70;;;;;;5116694;28;20039;-66
2023/09/04 08:16:30;;;;;;;6.72;3.78;;;32.40;91.50;;;;;;5116389;27;20028;-66
2023/09/04 08:18:56;;;;;;;7.53;4.00;;;33.00;90.30;;;;;;5116165;28;20046;-66
2023/09/04 08:21:22;;;;;;;8.27;3.70;;;33.20;90.10;;;;;;5116424;28;20028;-66
2023/09/04 08:23:47;;;;;;;7.43;3.90;;;33.40;88.90;;;;;;5116151;28;20080;-65
2023/09/04 08:26:14;;;;;;;5.82;3.70;;;33.60;88.10;;;;;;5116509;28;20202;-65
2023/09/04 08:28:40;;;;;;;6.60;4.13;;;33.80;88.00;;;;;;5115841;28;20123;-66
2023/09/04 08:31:06;;;;;;;7.03;4.22;;;34.20;87.40;;;;;;5116401;28;20471;-65
2023/09/04 08:33:31;;;;;;;7.82;4.00;;;34.70;86.60;;;;;;5115709;28;20032;-65
2023/09/04 08:35:57;;;;;;;7.25;4.07;;;35.00;85.00;;;;;;5116453;28;20023;-65
2023/09/04 08:38:22;;;;;;;6.00;3.75;;;35.30;84.90;;;;;;5116118;28;20027;-65
2023/09/04 08:40:48;;;;;;;9.20;4.20;;;35.60;84.30;;;;;;5115251;28;20157;-65
2023/09/04 08:43:17;;;;;;;8.57;4.03;;;36.00;83.40;;;;;;5107336;28;20028;-68
2023/09/04 08:45:43;;;;;;;6.63;4.00;;;36.40;82.50;;;;;;5106495;28;20375;-64
2023/09/04 08:48:12;;;;;;;7.53;4.20;;;36.70;82.80;;;;;;5115745;28;20042;-65
2023/09/04 08:50:37;;;;;;;9.73;6.10;;;37.10;80.70;;;;;;5115900;27;20031;-66
2023/09/04 08:53:06;;;;;;;6.47;3.70;;;37.40;80.80;;;;;;5115661;28;20024;-66
2023/09/04 08:55:35;;;;;;;6.47;3.88;;;37.90;79.70;;;;;;5115976;28;20081;-67
2023/09/04 08:58:02;;;;;;;4.93;3.33;;;38.20;79.60;;;;;;5115523;28;20491;-67
2023/09/04 09:00:28;;;;;;;9.65;4.28;;;38.70;78.30;;;;;;5115086;28;20438;-66
2023/09/04 09:02:58;;;;;;;9.02;3.97;;;38.90;77.60;;;;;;5109970;28;20063;-67
2023/09/04 09:05:24;;;;;;;8.18;4.25;;;39.20;77.50;;;;;;5104696;28;20027;-67
2023/09/04 09:07:50;;;;;;;9.25;4.40;;;39.30;76.90;;;;;;5110821;27;20056;-67
2023/09/04 09:10:19;;;;;;;8.75;4.50;;;39.40;76.00;;;;;;5109768;28;20028;-66
2023/09/04 09:12:44;;;;;;;6.80;3.88;;;39.10;76.20;;;;;;5111540;27;20486;-67
2023/09/04 09:15:10;;;;;;;6.22;4.63;;;38.90;77.50;;;;;;5107122;28;20072;-66
2023/09/04 09:17:54;;;;;;;6.80;4.45;;;38.70;76.40;;;;;;5102340;28;20031;-66
2023/09/04 09:20:33;;;;;;;9.02;4.30;;;38.30;76.00;;;;;;5096244;28;20476;-66
2023/09/04 09:22:58;;;;;;;9.10;4.65;;;37.50;77.60;;;;;;5104721;28;20084;-66
2023/09/04 09:25:24;;;;;;;7.32;4.20;;;37.30;77.60;;;;;;5115260;28;20452;-66
2023/09/04 09:27:50;;;;;;;8.75;5.32;;;37.10;78.10;;;;;;5093557;28;20540;-66
2023/09/04 09:30:16;;;;;;;6.68;4.40;;;36.90;78.10;;;;;;5101475;28;20061;-66
2023/09/04 09:32:42;;;;;;;7.43;4.95;;;37.00;78.80;;;;;;5111563;28;20035;-66
2023/09/04 09:35:09;;;;;;;7.38;4.35;;;37.40;77.60;;;;;;5102469;28;20088;-66
2023/09/04 09:37:35;;;;;;;9.35;4.97;;;37.60;76.90;;;;;;5106440;28;20528;-66
2023/09/04 09:40:00;;;;;;;7.78;4.63;;;37.60;77.00;;;;;;5109316;28;20063;-66
2023/09/04 09:42:26;;;;;;;7.35;3.92;;;37.60;77.10;;;;;;5107076;28;20391;-67
2023/09/04 09:44:52;;;;;;;12.30;4.60;;;37.90;77.30;;;;;;5109871;28;20039;-67
2023/09/04 09:47:18;;;;;;;6.03;4.18;;;38.30;77.00;;;;;;5105517;28;20448;-66
2023/09/04 09:49:45;;;;;;;6.68;3.97;;;38.70;76.00;;;;;;5108314;28;20026;-67
2023/09/04 09:52:12;;;;;;;4.70;3.70;;;39.00;76.00;;;;;;5101227;28;20028;-67
2023/09/04 09:54:46;;;;;;;7.15;4.13;;;39.40;75.30;;;;;;5108353;28;20052;-66
2023/09/04 09:57:16;;;;;;;6.93;4.40;;;39.70;74.80;;;;;;5103129;28;20382;-66
2023/09/04 09:59:47;;;;;;;7.30;3.75;;;39.90;74.40;;;;;;5105094;28;20043;-66
2023/09/04 10:02:24;;;;;;;;;;;39.80;74.90;;;;;;5107756;28;20536;-66
2023/09/04 10:04:51;;;;;;;7.80;4.15;;;39.70;74.80;;;;;;5114002;28;19918;-67
2023/09/04 10:07:20;;;;;;;8.52;4.20;;;39.60;74.90;;;;;;5113924;28;20023;-66
2023/09/04 10:09:59;;;;;;;6.80;4.05;;;39.50;74.60;;;;;;5102847;27;20753;-67
2023/09/04 10:12:35;;;;;;;8.13;4.15;;;39.30;75.30;;;;;;5104170;28;20036;-67
2023/09/04 10:15:03;;;;;;;6.13;3.97;;;39.70;75.10;;;;;;5101931;28;20115;-67
2023/09/04 10:17:36;;;;;;;5.07;3.92;;;39.90;75.00;;;;;;5101966;28;20488;-66
2023/09/04 10:20:04;;;;;;;5.22;3.67;;;40.00;74.10;;;;;;5113252;28;20024;-66
2023/09/04 10:22:37;;;;;;;5.63;3.65;;;39.80;74.00;;;;;;5105732;28;20414;-65
2023/09/04 10:25:12;;;;;;;7.43;4.32;;;39.60;74.50;;;;;;5112125;28;20051;-66
2023/09/04 10:27:53;;;;;;;4.90;4.10;;;39.60;74.50;;;;;;5103060;27;20034;-66
2023/09/04 10:30:24;;;;;;;7.40;4.97;;;39.70;73.60;;;;;;5094850;28;20034;-66
2023/09/04 10:32:52;;;;;;;6.55;4.85;;;39.50;74.70;;;;;;5106102;28;20032;-68
2023/09/04 10:35:18;;;;;;;5.47;3.97;;;39.50;73.90;;;;;;5112565;28;20379;-66
2023/09/04 10:37:44;;;;;;;5.80;3.92;;;39.10;74.30;;;;;;5102236;28;20032;-67
2023/09/04 10:40:13;;;;;;;7.25;4.25;;;39.00;74.70;;;;;;5103623;28;20031;-67
2023/09/04 10:42:41;;;;;;;9.75;4.32;;;39.00;74.90;;;;;;5109892;28;20020;-67
2023/09/04 10:45:18;;;;;;;6.63;4.32;;;39.20;75.00;;;;;;5103179;28;20043;-67
2023/09/04 10:47:51;;;;;;;6.13;4.22;;;39.20;74.90;;;;;;5113174;28;20492;-68
2023/09/04 10:50:33;;;;;;;4.80;3.85;;;39.20;75.00;;;;;;5111685;28;20454;-67
2023/09/04 10:53:00;;;;;;;4.93;4.30;;;39.20;74.70;;;;;;5098491;28;20363;-66
2023/09/04 10:55:27;;;;;;;6.43;4.60;;;39.30;74.30;;;;;;5111753;28;20402;-67
2023/09/04 10:57:57;;;;;;;6.95;4.50;;;39.20;74.10;;;;;;5106901;28;20023;-67
2023/09/04 11:00:32;;;;;;;7.43;4.70;;;39.00;75.00;;;;;;5100821;28;20090;-67
2023/09/04 11:03:11;;;;;;;7.07;4.00;;;38.80;74.70;;;;;;5098436;28;20074;-67
2023/09/04 11:06:01;;;;;;;5.97;4.25;;;38.70;75.10;;;;;;5099662;28;20048;-67
2023/09/04 11:08:34;;;;;;;6.20;4.40;;;38.70;75.20;;;;;;5113700;28;20096;-66
2023/09/04 11:11:04;;;;;;;8.20;4.70;;;38.50;74.90;;;;;;5116896;28;20027;-68
2023/09/04 11:13:31;;;;;;;6.85;4.68;;;38.40;75.20;;;;;;5107483;28;20043;-67
2023/09/04 11:15:58;;;;;;;7.15;4.57;;;38.20;75.20;;;;;;5106035;28;20027;-67
2023/09/04 11:18:31;;;;;;;6.18;4.15;;;38.20;75.10;;;;;;5116064;28;20105;-68
2023/09/04 11:20:59;;;;;;;7.13;4.55;;;37.90;74.80;;;;;;5116423;27;20472;-68
2023/09/04 11:23:25;;;;;;;6.32;4.10;;;37.70;75.20;;;;;;5116909;28;20042;-66
2023/09/04 11:25:55;;;;;;;5.60;4.03;;;37.70;75.60;;;;;;5110753;27;20036;-67
2023/09/04 11:28:27;;;;;;;7.03;4.38;;;37.70;75.40;;;;;;5111172;28;20028;-67
2023/09/04 11:30:54;;;;;;;6.95;4.10;;;37.90;75.00;;;;;;5117010;28;20451;-67
2023/09/04 11:33:20;;;;;;;7.10;4.22;;;38.00;74.80;;;;;;5117227;28;20490;-67
2023/09/04 11:36:02;;;;;;;5.65;3.75;;;38.00;74.70;;;;;;5116401;28;20032;-67
2023/09/04 11:38:30;;;;;;;6.03;4.25;;;38.20;74.80;;;;;;5116893;28;20034;-67
2023/09/04 11:40:55;;;;;;;5.40;3.90;;;38.30;74.20;;;;;;5116740;28;20045;-67
2023/09/04 11:43:23;;;;;;;7.97;4.38;;;38.40;74.00;;;;;;5116449;28;20020;-66
2023/09/04 11:45:55;;;;;;;7.80;3.80;;;38.30;74.00;;;;;;5117052;28;20036;-66
2023/09/04 11:48:22;;;;;;;7.57;4.43;;;38.30;74.80;;;;;;5116817;28;20062;-69
2023/09/04 11:50:48;;;;;;;7.18;4.30;;;38.70;74.60;;;;;;5116278;28;20043;-67
2023/09/04 11:53:14;;;;;;;6.63;4.15;;;39.20;73.90;;;;;;5116997;28;20023;-67
2023/09/04 11:55:40;;;;;;;5.55;4.07;;;39.30;73.20;;;;;;5116762;28;20091;-68
2023/09/04 11:58:05;;;;;;;7.95;5.18;;;39.30;73.20;;;;;;5115692;28;20169;-67
2023/09/04 12:00:31;;;;;;;5.72;4.00;;;39.20;73.40;;;;;;5116442;28;20057;-66
2023/09/04 12:02:56;;;;;;;5.65;3.88;;;39.00;73.50;;;;;;5116726;28;20051;-67
2023/09/04 12:05:22;;;;;;;6.82;4.55;;;38.90;73.80;;;;;;5115568;28;20139;-67
2023/09/04 12:07:47;;;;;;;6.82;4.43;;;39.10;73.50;;;;;;5115287;28;20058;-68
2023/09/04 12:10:13;;;;;;;8.80;4.40;;;39.50;72.60;;;;;;5115495;28;20043;-67
2023/09/04 12:12:39;;;;;;;8.93;4.70;;;39.60;72.50;;;;;;5114689;28;20035;-66
2023/09/04 12:15:05;;;;;;;7.95;4.75;;;39.80;72.70;;;;;;5115370;28;20024;-67
2023/09/04 12:17:31;;;;;;;7.07;4.70;;;39.80;71.90;;;;;;5115197;28;20387;-67
2023/09/04 12:19:56;;;;;;;5.38;4.05;;;39.60;72.20;;;;;;5115928;28;20015;-67
2023/09/04 12:22:23;;;;;;;6.38;4.28;;;39.20;73.20;;;;;;5114674;28;20027;-68
2023/09/04 12:25:05;;;;;;;7.88;4.45;;;38.80;72.90;;;;;;5113279;28;20036;-67
2023/09/04 12:27:33;;;;;;;7.22;3.55;;;38.40;72.70;;;;;;5114180;28;20469;-67
2023/09/04 12:29:59;;;;;;;7.68;3.90;;;37.90;73.30;;;;;;5114286;28;20513;-67
2023/09/04 12:32:25;;;;;;;7.68;4.13;;;37.60;74.10;;;;;;5115427;28;20028;-67
2023/09/04 12:35:00;;;;;;;5.03;3.90;;;37.30;74.10;;;;;;5113562;28;20055;-67